createdAt,value
2022-08-03T00:00:27.647Z,74.29
2022-08-03T00:02:54.242Z,74.12
2022-08-03T00:05:21.037Z,75.24
2022-08-03T00:07:48.449Z,75.24
2022-08-03T00:10:16.690Z,75.32
2022-08-03T00:12:43.244Z,76.24
2022-08-03T00:15:15.125Z,75.86
2022-08-03T00:17:52.403Z,76.24
2022-08-03T00:20:21.984Z,76.65
2022-08-03T00:22:49.301Z,76.91
2022-08-03T00:25:16.067Z,77.06
2022-08-03T00:27:42.640Z,77.12
2022-08-03T00:30:09.570Z,77.79
2022-08-03T00:32:36.124Z,77.51
2022-08-03T00:35:05.699Z,77.87
2022-08-03T00:37:41.073Z,78.03
2022-08-03T00:40:11.110Z,77.75
2022-08-03T00:42:47.781Z,77.68
2022-08-03T00:45:14.660Z,78.09
2022-08-03T00:47:41.340Z,78.37
2022-08-03T00:50:08.261Z,78.89
2022-08-03T00:52:35.481Z,78.93
2022-08-03T00:55:04.180Z,79.40
2022-08-03T00:57:32.714Z,79.14
2022-08-03T01:00:02.736Z,79.41
2022-08-03T01:02:29.409Z,79.33
2022-08-03T01:04:56.528Z,79.44
2022-08-03T01:07:42.248Z,80.17
2022-08-03T01:10:17.351Z,79.67
2022-08-03T01:12:57.822Z,80.05
2022-08-03T01:15:58.767Z,80.29
2022-08-03T01:18:54.940Z,81.47
2022-08-03T01:21:33.054Z,82.04
2022-08-03T01:24:14.928Z,82.67
2022-08-03T01:27:12.781Z,82.74
2022-08-03T01:30:00.709Z,82.56
2022-08-03T01:32:54.553Z,82.45
2022-08-03T01:35:38.751Z,82.92
2022-08-03T01:38:22.198Z,83.30
2022-08-03T01:40:51.835Z,83.08
2022-08-03T01:44:28.057Z,83.20
2022-08-03T01:46:07.980Z,82.97
2022-08-03T01:48:37.983Z,82.82
2022-08-03T01:51:05.673Z,82.83
2022-08-03T01:53:34.872Z,82.47
2022-08-03T01:56:03.679Z,82.34
2022-08-03T01:58:32.289Z,81.88
2022-08-03T02:01:01.483Z,81.67
2022-08-03T02:03:36.978Z,81.21
2022-08-03T02:07:00.579Z,80.97
2022-08-03T02:08:53.689Z,80.79
2022-08-03T02:11:20.375Z,80.33
2022-08-03T02:13:49.751Z,80.30
2022-08-03T02:16:18.981Z,80.29
2022-08-03T02:18:48.014Z,80.24
2022-08-03T02:21:55.898Z,80.47
2022-08-03T02:24:04.470Z,80.04
2022-08-03T02:26:31.927Z,80.19
2022-08-03T02:29:05.191Z,79.89
2022-08-03T02:31:34.503Z,79.67
2022-08-03T02:34:04.599Z,79.79
2022-08-03T02:36:35.000Z,79.42
2022-08-03T02:39:03.286Z,78.92
2022-08-03T02:41:34.988Z,78.81
2022-08-03T02:44:07.547Z,78.30
2022-08-03T02:46:39.691Z,78.03
2022-08-03T02:49:40.654Z,77.34
2022-08-03T02:51:55.913Z,76.39
2022-08-03T02:54:26.600Z,75.46
2022-08-03T02:56:56.018Z,74.87
2022-08-03T02:59:23.894Z,74.97
2022-08-03T03:01:51.539Z,74.92
2022-08-03T03:04:19.167Z,75.13
2022-08-03T03:06:48.962Z,74.82
2022-08-03T03:09:16.849Z,74.60
2022-08-03T03:11:44.621Z,74.42
2022-08-03T03:14:13.472Z,74.37
2022-08-03T03:16:42.009Z,74.04
2022-08-03T03:19:11.377Z,73.95
2022-08-03T03:21:38.356Z,73.83
2022-08-03T03:24:06.595Z,74.09
2022-08-03T03:26:33.809Z,73.83
2022-08-03T03:29:02.568Z,73.69
2022-08-03T03:31:29.764Z,73.65
2022-08-03T03:33:58.500Z,73.51
2022-08-03T03:36:25.248Z,73.84
2022-08-03T03:38:51.795Z,73.84
2022-08-03T03:41:20.812Z,73.92
2022-08-03T03:43:49.048Z,73.97
2022-08-03T03:46:16.485Z,74.28
2022-08-03T03:48:44.128Z,74.58
2022-08-03T03:51:10.963Z,74.59
2022-08-03T03:53:37.543Z,74.88
2022-08-03T03:56:04.379Z,74.94
2022-08-03T03:58:32.769Z,74.74
2022-08-03T04:01:00.160Z,74.63
2022-08-03T04:03:27.051Z,74.27
2022-08-03T04:06:12.279Z,74.29
2022-08-03T04:09:18.732Z,74.37
2022-08-03T04:11:52.946Z,74.22
2022-08-03T04:14:24.451Z,73.89
2022-08-03T04:16:56.617Z,74.04
2022-08-03T04:19:38.351Z,73.76
2022-08-03T04:22:09.958Z,73.60
2022-08-03T04:25:03.357Z,73.91
2022-08-03T04:27:34.856Z,73.91
2022-08-03T04:30:04.555Z,74.13
2022-08-03T04:32:31.848Z,74.22
2022-08-03T04:34:58.752Z,74.12
2022-08-03T04:37:38.326Z,74.39
2022-08-03T04:40:09.600Z,74.25
2022-08-03T04:42:37.753Z,74.66
2022-08-03T04:45:05.586Z,74.64
2022-08-03T04:47:37.727Z,74.57
2022-08-03T04:50:11.895Z,74.69
2022-08-03T04:52:39.890Z,74.69
2022-08-03T04:55:06.945Z,74.67
2022-08-03T04:57:33.484Z,74.89
2022-08-03T05:00:02.951Z,74.59
2022-08-03T05:02:31.827Z,74.35
2022-08-03T05:04:58.780Z,74.00
2022-08-03T05:07:25.509Z,73.88
2022-08-03T05:10:01.549Z,73.38
2022-08-03T05:12:32.920Z,71.75
2022-08-03T05:15:00.584Z,71.46
2022-08-03T05:17:27.540Z,71.06
2022-08-03T05:19:54.736Z,70.50
2022-08-03T05:22:21.976Z,70.10
2022-08-03T05:24:49.208Z,69.82
2022-08-03T05:27:21.555Z,69.48
2022-08-03T05:29:50.339Z,69.49
2022-08-03T05:32:18.079Z,69.54
2022-08-03T05:34:45.228Z,68.85
2022-08-03T05:37:11.811Z,68.29
2022-08-03T05:39:38.484Z,67.58
2022-08-03T05:42:05.054Z,66.74
2022-08-03T05:44:32.223Z,66.29
2022-08-03T05:46:59.421Z,65.31
2022-08-03T05:49:26.106Z,65.43
2022-08-03T05:51:59.792Z,65.06
2022-08-03T05:54:56.077Z,63.49
2022-08-03T05:57:26.141Z,62.64
2022-08-03T05:59:54.691Z,62.64
2022-08-03T06:02:26.768Z,61.77
2022-08-03T06:04:53.534Z,60.99
2022-08-03T06:07:20.162Z,60.26
2022-08-03T06:10:34.171Z,57.92
2022-08-03T06:12:36.107Z,57.27
2022-08-03T06:17:30.571Z,56.11
2022-08-03T06:20:05.873Z,56.20
2022-08-03T06:22:33.845Z,55.63
2022-08-03T06:25:05.074Z,55.62
2022-08-03T06:27:37.199Z,55.72
2022-08-03T06:30:05.158Z,55.34
2022-08-03T06:32:31.716Z,54.27
2022-08-03T06:34:58.243Z,52.58
2022-08-03T06:37:24.989Z,52.74
2022-08-03T06:39:51.542Z,52.75
2022-08-03T06:42:18.296Z,53.17
2022-08-03T06:44:47.347Z,53.12
2022-08-03T06:47:13.892Z,53.61
2022-08-03T06:49:41.563Z,52.76
2022-08-03T06:52:08.173Z,52.54
2022-08-03T06:54:35.741Z,51.12
2022-08-03T06:57:02.476Z,50.29
2022-08-03T07:00:08.644Z,49.83
2022-08-03T07:02:19.308Z,48.63
2022-08-03T07:04:49.773Z,48.46
2022-08-03T07:07:17.443Z,48.06
2022-08-03T07:09:57.839Z,48.64
2022-08-03T07:12:26.247Z,46.42
2022-08-03T07:14:56.683Z,46.52
2022-08-03T07:17:27.000Z,46.51
2022-08-03T07:19:53.961Z,45.26
2022-08-03T07:22:20.520Z,46.12
2022-08-03T07:24:47.817Z,45.75
2022-08-03T07:27:16.348Z,46.89
2022-08-03T07:29:43.001Z,44.34
2022-08-03T07:32:09.620Z,46.19
2022-08-03T07:34:36.179Z,44.42
2022-08-03T07:37:02.731Z,44.24
2022-08-03T07:39:29.277Z,44.37
2022-08-03T07:41:55.880Z,43.49
2022-08-03T07:44:22.484Z,43.77
2022-08-03T07:46:50.705Z,42.21
2022-08-03T07:49:18.612Z,40.72
2022-08-03T07:51:45.251Z,41.48
2022-08-03T07:54:11.957Z,40.26
2022-08-03T07:56:39.157Z,39.67
2022-08-03T07:59:05.919Z,40.80
2022-08-03T08:01:35.903Z,40.94
2022-08-03T08:04:02.495Z,40.71
2022-08-03T08:06:29.060Z,39.66
2022-08-03T08:08:59.509Z,39.14
2022-08-03T08:11:26.096Z,38.94
2022-08-03T08:13:52.685Z,38.01
2022-08-03T08:16:19.201Z,38.03
2022-08-03T08:18:45.784Z,37.06
2022-08-03T08:21:12.369Z,36.96
2022-08-03T08:23:42.298Z,36.71
2022-08-03T08:26:10.528Z,37.24
2022-08-03T08:28:37.058Z,36.46
2022-08-03T08:31:03.775Z,35.31
2022-08-03T08:33:47.851Z,35.79
2022-08-03T08:36:16.920Z,36.16
2022-08-03T08:38:45.134Z,35.04
2022-08-03T08:41:13.460Z,34.89
2022-08-03T08:43:40.159Z,35.57
2022-08-03T08:46:10.610Z,35.59
2022-08-03T08:48:41.794Z,34.30
2022-08-03T08:51:09.848Z,34.07
2022-08-03T08:53:38.414Z,34.43
2022-08-03T08:56:05.855Z,33.69
2022-08-03T08:58:38.723Z,34.11
2022-08-03T09:01:05.765Z,33.22
2022-08-03T09:03:35.314Z,33.57
2022-08-03T09:06:02.785Z,32.74
2022-08-03T09:08:31.015Z,31.39
2022-08-03T09:10:58.020Z,32.43
2022-08-03T09:13:25.052Z,31.14
2022-08-03T09:16:16.247Z,30.91
2022-08-03T09:18:45.239Z,31.47
2022-08-03T09:21:34.957Z,31.91
2022-08-03T09:24:05.872Z,31.71
2022-08-03T09:26:38.002Z,30.93
2022-08-03T09:29:14.326Z,31.69
2022-08-03T09:31:44.638Z,31.70
2022-08-03T09:34:17.400Z,30.99
2022-08-03T09:36:48.962Z,31.31
2022-08-03T09:39:40.297Z,31.14
2022-08-03T09:42:23.936Z,30.81
2022-08-03T09:44:51.879Z,29.93
2022-08-03T09:47:28.859Z,30.36
2022-08-03T09:50:09.091Z,30.44
2022-08-03T09:52:52.361Z,31.19
2022-08-03T09:55:23.612Z,30.34
2022-08-03T09:58:11.505Z,29.73
2022-08-03T10:00:58.047Z,29.41
2022-08-03T10:03:26.274Z,29.23
2022-08-03T10:05:57.445Z,29.57
2022-08-03T10:08:26.122Z,30.09
2022-08-03T10:10:58.720Z,29.27
2022-08-03T10:13:25.509Z,28.62
2022-08-03T10:16:22.503Z,28.61
2022-08-03T10:18:38.830Z,29.47
2022-08-03T10:21:10.532Z,28.66
2022-08-03T10:23:39.975Z,29.03
2022-08-03T10:26:11.401Z,29.25
2022-08-03T10:28:45.064Z,29.20
2022-08-03T10:31:14.253Z,28.86
2022-08-03T10:33:51.983Z,29.22
2022-08-03T10:36:23.782Z,29.51
2022-08-03T10:38:53.273Z,29.05
2022-08-03T10:41:31.128Z,29.37
2022-08-03T10:44:09.973Z,28.90
2022-08-03T10:46:44.477Z,28.52
2022-08-03T10:49:16.100Z,28.80
2022-08-03T10:51:47.432Z,28.17
2022-08-03T10:55:07.418Z,27.57
2022-08-03T10:57:58.315Z,27.86
2022-08-03T11:00:27.537Z,27.84
2022-08-03T11:03:16.595Z,28.32
2022-08-03T11:05:49.169Z,27.81
2022-08-03T11:08:24.867Z,27.97
2022-08-03T11:10:55.353Z,27.66
2022-08-03T11:13:25.040Z,28.27
2022-08-03T11:16:01.697Z,28.93
2022-08-03T11:18:29.673Z,28.85
2022-08-03T11:20:58.627Z,28.99
2022-08-03T11:24:03.490Z,29.18
2022-08-03T11:26:29.755Z,28.47
2022-08-03T11:29:30.200Z,28.13
2022-08-03T11:31:57.167Z,27.75
2022-08-03T11:34:24.663Z,27.89
2022-08-03T11:37:24.586Z,28.06
2022-08-03T11:39:54.925Z,28.55
2022-08-03T11:42:24.733Z,28.17
2022-08-03T11:44:52.789Z,28.43
2022-08-03T11:47:20.835Z,27.86
2022-08-03T11:49:48.575Z,28.43
2022-08-03T11:52:16.316Z,27.99
2022-08-03T11:54:43.486Z,28.02
2022-08-03T11:57:10.332Z,27.80
2022-08-03T11:59:38.770Z,27.81
2022-08-03T12:02:16.189Z,28.36
2022-08-03T12:04:58.461Z,28.04
2022-08-03T12:08:03.273Z,27.40
2022-08-03T12:10:15.663Z,27.39
2022-08-03T12:12:46.266Z,27.32
2022-08-03T12:15:13.555Z,27.59
2022-08-03T12:17:41.614Z,27.49
2022-08-03T12:20:10.447Z,27.21
2022-08-03T12:22:39.310Z,27.56
2022-08-03T12:25:07.776Z,27.54
2022-08-03T12:27:34.820Z,27.90
2022-08-03T12:30:02.575Z,27.23
2022-08-03T12:32:31.173Z,28.22
2022-08-03T12:35:01.232Z,27.99
2022-08-03T12:37:29.356Z,27.64
2022-08-03T12:40:09.412Z,28.59
2022-08-03T12:42:39.198Z,28.26
2022-08-03T12:45:28.745Z,26.91
2022-08-03T12:47:56.572Z,26.26
2022-08-03T12:50:27.329Z,27.36
2022-08-03T12:52:54.358Z,27.02
2022-08-03T12:55:22.239Z,27.09
2022-08-03T12:57:49.149Z,27.06
2022-08-03T13:00:29.111Z,27.11
2022-08-03T13:03:39.718Z,26.91
2022-08-03T13:05:55.677Z,26.64
2022-08-03T13:08:24.735Z,27.64
2022-08-03T13:10:52.181Z,27.46
2022-08-03T13:13:20.819Z,26.72
2022-08-03T13:15:48.123Z,26.95
2022-08-03T13:18:16.757Z,26.46
2022-08-03T13:20:44.382Z,27.25
2022-08-03T13:23:21.943Z,28.21
2022-08-03T13:25:55.221Z,27.41
2022-08-03T13:28:23.054Z,27.98
2022-08-03T13:30:49.720Z,27.27
2022-08-03T13:33:16.380Z,27.01
2022-08-03T13:35:42.984Z,26.89
2022-08-03T13:38:09.503Z,27.90
2022-08-03T13:40:41.821Z,27.65
2022-08-03T13:43:08.784Z,27.06
2022-08-03T13:45:35.400Z,27.30
2022-08-03T13:48:02.069Z,27.10
2022-08-03T13:50:28.611Z,26.86
2022-08-03T13:52:55.169Z,26.91
2022-08-03T13:55:21.778Z,26.74
2022-08-03T13:58:02.873Z,26.72
2022-08-03T14:00:35.331Z,26.00
2022-08-03T14:03:13.215Z,26.86
2022-08-03T14:05:41.818Z,26.88
2022-08-03T14:08:08.368Z,26.95
2022-08-03T14:10:37.440Z,27.97
2022-08-03T14:13:04.512Z,27.96
2022-08-03T14:15:31.290Z,27.87
2022-08-03T14:17:58.787Z,27.53
2022-08-03T14:20:36.918Z,28.17
2022-08-03T14:23:06.832Z,27.40
2022-08-03T14:25:43.526Z,26.46
2022-08-03T14:28:18.938Z,27.36
2022-08-03T14:30:46.162Z,26.77
2022-08-03T14:33:12.721Z,26.26
2022-08-03T14:35:39.312Z,25.79
2022-08-03T14:38:06.056Z,25.84
2022-08-03T14:40:32.690Z,26.14
2022-08-03T14:42:59.214Z,26.29
2022-08-03T14:45:25.781Z,27.22
2022-08-03T14:50:33.283Z,26.72
2022-08-03T14:50:43.130Z,26.92
2022-08-03T14:53:12.495Z,26.16
2022-08-03T14:55:50.648Z,24.55
2022-08-03T14:58:27.443Z,24.60
2022-08-03T15:00:55.403Z,23.74
2022-08-03T15:03:24.792Z,23.35
2022-08-03T15:05:56.466Z,21.46
2022-08-03T15:08:24.918Z,20.84
2022-08-03T15:10:52.043Z,20.41
2022-08-03T15:13:19.901Z,21.29
2022-08-03T15:15:46.900Z,20.75
2022-08-03T15:18:13.432Z,19.45
2022-08-03T15:20:44.855Z,19.79
2022-08-03T15:23:13.411Z,19.29
2022-08-03T15:26:32.048Z,20.14
2022-08-03T15:28:26.753Z,20.81
2022-08-03T15:30:53.315Z,20.76
2022-08-03T15:33:20.217Z,20.91
2022-08-03T15:35:47.646Z,22.81
2022-08-03T15:38:14.407Z,23.21
2022-08-03T15:40:41.683Z,23.56
2022-08-03T15:43:08.716Z,23.89
2022-08-03T15:45:36.259Z,23.59
2022-08-03T15:48:05.098Z,21.99
2022-08-03T15:50:31.742Z,22.49
2022-08-03T15:52:58.278Z,23.12
2022-08-03T15:55:24.989Z,22.31
2022-08-03T15:59:10.877Z,23.21
2022-08-03T16:00:39.279Z,24.06
2022-08-03T16:03:06.013Z,25.16
2022-08-03T16:05:32.803Z,25.16
2022-08-03T16:08:04.258Z,24.79
2022-08-03T16:10:32.569Z,25.21
2022-08-03T16:13:00.105Z,27.51
2022-08-03T16:15:27.043Z,28.16
2022-08-03T16:17:53.673Z,26.31
2022-08-03T16:20:34.503Z,25.64
2022-08-03T16:23:10.846Z,26.26
2022-08-03T16:25:40.569Z,27.20
2022-08-03T16:28:13.404Z,26.67
2022-08-03T16:30:42.950Z,27.76
2022-08-03T16:33:09.920Z,26.91
2022-08-03T16:35:36.605Z,26.75
2022-08-03T16:38:09.218Z,27.76
2022-08-03T16:40:36.889Z,27.11
2022-08-03T16:43:18.516Z,28.96
2022-08-03T16:45:48.671Z,27.31
2022-08-03T16:48:16.367Z,27.43
2022-08-03T16:50:44.244Z,27.54
2022-08-03T16:53:12.804Z,27.62
2022-08-03T16:55:53.226Z,27.82
2022-08-03T16:58:24.428Z,28.22
2022-08-03T17:01:24.818Z,27.58
2022-08-03T17:04:04.611Z,27.77
2022-08-03T17:06:37.229Z,28.23
2022-08-03T17:09:10.843Z,28.11
2022-08-03T17:11:46.383Z,29.41
2022-08-03T17:14:14.905Z,29.67
2022-08-03T17:16:45.137Z,29.21
2022-08-03T17:19:21.719Z,28.93
2022-08-03T17:21:59.739Z,29.03
2022-08-03T17:24:26.520Z,29.66
2022-08-03T17:26:55.083Z,29.16
2022-08-03T17:29:25.157Z,29.48
2022-08-03T17:31:52.930Z,29.31
2022-08-03T17:34:20.866Z,29.26
2022-08-03T17:37:27.394Z,29.78
2022-08-03T17:39:58.208Z,29.91
2022-08-03T17:42:30.009Z,30.42
2022-08-03T17:45:02.306Z,30.51
2022-08-03T17:47:42.529Z,30.76
2022-08-03T17:50:24.211Z,30.78
2022-08-03T17:53:00.952Z,31.12
2022-08-03T17:55:52.026Z,31.30
2022-08-03T17:58:25.535Z,31.74
2022-08-03T18:01:57.373Z,31.79
2022-08-03T18:04:11.076Z,31.54
2022-08-03T18:06:56.368Z,31.70
2022-08-03T18:10:04.314Z,31.78
2022-08-03T18:12:51.964Z,32.19
2022-08-03T18:15:25.348Z,32.71
2022-08-03T18:17:55.393Z,32.59
2022-08-03T18:20:34.658Z,33.06
2022-08-03T18:23:10.284Z,33.24
2022-08-03T18:25:45.263Z,33.19
2022-08-03T18:28:18.746Z,33.01
2022-08-03T18:30:54.451Z,33.24
2022-08-03T18:34:19.531Z,33.28
2022-08-03T18:36:11.325Z,33.27
2022-08-03T18:38:47.469Z,33.67
2022-08-03T18:41:20.694Z,33.76
2022-08-03T18:44:07.155Z,33.84
2022-08-03T18:46:53.724Z,34.31
2022-08-03T18:49:20.223Z,34.15
2022-08-03T18:51:54.968Z,34.52
2022-08-03T18:54:48.909Z,34.56
2022-08-03T18:57:38.137Z,34.65
2022-08-03T19:03:12.243Z,34.97
2022-08-03T19:06:06.363Z,35.27
2022-08-03T19:08:50.329Z,35.54
2022-08-03T19:12:26.016Z,36.06
2022-08-03T19:14:23.168Z,36.60
2022-08-03T19:17:04.751Z,36.99
2022-08-03T19:19:44.388Z,37.13
2022-08-03T19:22:12.801Z,37.52
2022-08-03T19:24:45.376Z,37.54
2022-08-03T19:27:13.536Z,38.69
2022-08-03T19:29:58.167Z,38.26
2022-08-03T19:32:32.486Z,38.28
2022-08-03T19:35:01.177Z,38.89
2022-08-03T19:37:38.135Z,39.42
2022-08-03T19:40:10.692Z,39.87
2022-08-03T19:42:43.253Z,39.68
2022-08-03T19:45:14.693Z,39.93
2022-08-03T19:48:13.336Z,40.03
2022-08-03T19:50:44.438Z,40.46
2022-08-03T19:53:13.172Z,40.80
2022-08-03T19:55:48.952Z,40.90
2022-08-03T19:58:17.525Z,41.43
2022-08-03T20:00:51.052Z,41.74
2022-08-03T20:03:21.854Z,42.48
2022-08-03T20:05:52.289Z,42.71
2022-08-03T20:08:22.215Z,43.49
2022-08-03T20:10:49.505Z,43.74
2022-08-03T20:13:19.380Z,44.24
2022-08-03T20:15:46.533Z,45.20
2022-08-03T20:18:17.013Z,46.54
2022-08-03T20:20:48.267Z,47.54
2022-08-03T20:23:19.443Z,46.64
2022-08-03T20:25:59.192Z,46.36
2022-08-03T20:28:31.455Z,45.96
2022-08-03T20:30:59.901Z,46.02
2022-08-03T20:33:27.867Z,45.82
2022-08-03T20:36:12.664Z,45.73
2022-08-03T20:38:46.893Z,45.75
2022-08-03T20:41:14.511Z,45.87
2022-08-03T20:43:41.565Z,46.09
2022-08-03T20:46:29.691Z,46.12
2022-08-03T20:48:57.248Z,46.50
2022-08-03T20:51:50.068Z,46.83
2022-08-03T20:54:28.948Z,47.87
2022-08-03T20:56:57.991Z,48.24
2022-08-03T20:59:29.037Z,49.49
2022-08-03T21:01:57.112Z,50.77
2022-08-03T21:04:24.036Z,51.52
2022-08-03T21:07:02.640Z,53.94
2022-08-03T21:10:04.239Z,55.27
2022-08-03T21:12:45.927Z,56.46
2022-08-03T21:13:10.335Z,34.70
2022-08-03T21:16:02.376Z,57.09
2022-08-03T21:18:09.479Z,57.96
2022-08-03T21:20:36.363Z,58.60
2022-08-03T21:23:03.587Z,59.07
2022-08-03T21:25:32.991Z,59.74
2022-08-03T21:28:00.950Z,60.61
2022-08-03T21:30:30.245Z,60.38
2022-08-03T21:32:58.211Z,59.47
2022-08-03T21:35:25.134Z,58.22
2022-08-03T21:38:12.251Z,57.88
2022-08-03T21:40:40.612Z,58.01
2022-08-03T21:43:07.956Z,58.67
2022-08-03T21:45:46.956Z,56.20
2022-08-03T21:48:14.271Z,54.38
2022-08-03T21:50:42.523Z,54.01
2022-08-03T21:53:10.618Z,54.41
2022-08-03T21:55:42.358Z,54.19
2022-08-03T21:58:13.743Z,54.76
2022-08-03T22:00:43.157Z,55.94
2022-08-03T22:05:44.480Z,57.57
2022-08-03T22:08:13.582Z,58.06
2022-08-03T22:10:43.187Z,58.54
2022-08-03T22:13:09.814Z,59.17
2022-08-03T22:15:36.372Z,59.77
2022-08-03T22:18:04.227Z,60.29
2022-08-03T22:20:31.021Z,60.83
2022-08-03T22:23:02.553Z,60.45
2022-08-03T22:25:32.897Z,59.91
2022-08-03T22:28:02.991Z,59.60
2022-08-03T22:30:31.617Z,58.89
2022-08-03T22:33:00.245Z,58.52
2022-08-03T22:35:28.470Z,58.23
2022-08-03T22:37:58.361Z,57.81
2022-08-03T22:40:26.427Z,57.92
2022-08-03T22:42:54.394Z,58.42
2022-08-03T22:46:07.385Z,58.50
2022-08-03T22:48:08.655Z,57.72
2022-08-03T22:50:35.540Z,56.89
2022-08-03T22:53:02.807Z,55.16
2022-08-03T22:55:29.544Z,54.43
2022-08-03T22:57:56.540Z,53.71
2022-08-03T23:00:23.781Z,53.76
2022-08-03T23:02:51.776Z,54.32
2022-08-03T23:06:02.022Z,55.01
2022-08-03T23:08:15.219Z,55.47
2022-08-03T23:10:46.810Z,55.87
2022-08-03T23:13:16.357Z,57.56
2022-08-03T23:18:20.855Z,56.64
2022-08-03T23:20:51.601Z,56.37
2022-08-03T23:23:19.835Z,56.10
2022-08-03T23:25:47.912Z,56.00
2022-08-03T23:28:16.378Z,55.62
2022-08-03T23:30:44.610Z,56.24
2022-08-03T23:33:13.694Z,56.49
2022-08-03T23:36:28.015Z,55.86
2022-08-03T23:38:48.551Z,55.94
2022-08-03T23:41:17.549Z,55.35
2022-08-03T23:43:53.615Z,54.68
2022-08-03T23:46:25.758Z,54.96
2022-08-03T23:48:53.889Z,54.43
2022-08-03T23:51:57.513Z,54.68
2022-08-03T23:54:40.345Z,55.01
2022-08-03T23:57:31.553Z,54.98
